Latest Weather Observations for Coolangatta

IDN60801

Issued at 9:03 pm EST Sunday 3 July 2022 (issued every 10 minutes, with the page automatically refreshed every 10 minutes)

About weather observations | Map of weather stations | Latest weather observations for NSW | Other Formats
Station Details ID: 040717 Name: COOLANGATTA Lat: -28.17 Lon: 153.51 Height: 4.0 m
Data from the previous 72 hours. | See also: Recent months at Coolangatta

Observations at Coolangatta are collected in the Queensland time zone, which does not include daylight savings during the summer period. Therefore 'Rain since 9am' totals and other values are based on the Queensland time zone.

Date/Time
EST
Temp
°C
App
Temp
°C
Dew
Point
°C
Rel
Hum
%
Delta-T
°C
Wind Press
QNH
hPa
Press
MSL
hPa
Rain since
9am
mm
Dir  Spd
km/h
Gust
km/h
Spd
kts
Gust
kts
03/09:00pm 13.8 14.7 12.9 94 0.5 CALM 0 6 0 3 1014.5 1014.5 0.2
03/08:30pm 13.7 12.9 12.8 94 0.5 SW 9 13 5 7 1013.9 1013.9 0.2
03/08:00pm 14.0 13.6 12.9 93 0.6 SW 7 11 4 6 1013.8 1013.8 0.2
03/07:30pm 14.6 14.3 13.3 92 0.7 SW 7 11 4 6 1013.5 1013.5 0.2
03/07:00pm 15.0 14.5 13.7 92 0.7 SW 9 11 5 6 1013.8 1013.8 0.2
03/06:30pm 15.2 15.2 13.7 91 0.8 E 6 9 3 5 1013.5 1013.5 0.2
03/06:00pm 15.1 14.8 13.3 89 1.0 E 7 9 4 5 1013.9 1013.9 0.2
03/05:30pm 15.8 15.6 13.6 87 1.2 E 7 9 4 5 1013.1 1013.1 0.2
03/05:00pm 16.3 16.4 13.8 85 1.4 E 6 7 3 4 1012.9 1012.9 0.2
03/04:30pm 17.4 17.1 12.7 74 2.6 E 6 9 3 5 1012.8 1012.8 0.2
03/04:00pm 18.5 18.1 12.3 67 3.4 E 6 11 3 6 1012.8 1012.8 0.2
03/03:30pm 19.2 18.2 12.2 64 3.9 E 9 11 5 6 1012.3 1012.3 0.2
03/03:00pm 18.9 17.9 12.2 65 3.7 NE 9 13 5 7 1012.7 1012.7 0.2
03/02:30pm 19.0 17.6 12.3 65 3.7 NE 11 17 6 9 1012.7 1012.7 0.2
03/02:00pm 19.2 17.7 12.0 63 4.0 ENE 11 17 6 9 1012.5 1012.5 0.2
03/01:30pm 19.7 17.4 11.7 60 4.4 NE 15 19 8 10 1012.9 1012.9 0.2
03/01:00pm 19.8 18.3 11.8 60 4.4 NNE 11 15 6 8 1013.0 1013.0 0.2
03/12:30pm 19.3 17.7 11.6 61 4.2 NE 11 15 6 8 1013.4 1013.4 0.2
03/12:00pm 19.2 18.0 11.5 61 4.2 NNE 9 15 5 8 1013.8 1013.8 0.2
03/11:30am 19.1 18.0 12.1 64 3.9 NNE 9 13 5 7 1014.2 1014.2 0.0
03/11:00am 19.7 18.5 11.7 60 4.4 E 9 15 5 8 1014.6 1014.6 0.0
03/10:30am 19.0 17.7 11.3 61 4.2 SE 9 11 5 6 1015.1 1015.1 0.0
03/10:00am 18.7 18.9 13.1 70 3.2 SW 4 7 2 4 1015.3 1015.3 0.0
03/09:30am 17.5 17.3 13.6 78 2.2 SSE 7 9 4 5 1015.5 1015.5 0.0
03/09:00am 16.2 16.8 14.2 88 1.1 SSW 4 7 2 4 1015.4 1015.4 2.0
03/08:30am 15.0 15.4 14.7 98 0.2 SW 6 9 3 5 1015.3 1015.3 2.0
03/08:00am 14.1 14.0 13.9 99 0.1 SW 7 9 4 5 1015.2 1015.2 2.0
03/07:30am 14.1 15.3 13.9 99 0.1 CALM 0 0 0 0 1015.2 1015.2 2.0
03/07:00am 13.7 14.8 13.5 99 0.1 CALM 0 0 0 0 1014.8 1014.8 2.0
03/06:30am 13.6 13.3 13.4 99 0.1 SW 7 9 4 5 1014.7 1014.7 2.0
03/06:00am 13.5 13.2 13.3 99 0.1 SW 7 9 4 5 1014.5 1014.5 2.0
03/05:30am 12.9 13.0 12.6 98 0.2 SW 4 9 2 5 1014.0 1014.0 2.0
03/05:00am 13.1 14.0 12.8 98 0.2 CALM 0 0 0 0 1014.0 1014.0 2.0
03/04:30am 13.5 14.5 13.2 98 0.2 CALM 0 0 0 0 1013.9 1013.9 2.0
03/04:00am 13.6 14.6 13.3 98 0.2 CALM 0 0 0 0 1014.2 1014.2 2.0
03/03:30am 13.7 13.4 13.4 98 0.2 SW 7 9 4 5 1014.0 1014.0 2.0
03/03:00am 13.9 14.3 13.6 98 0.2 SSW 4 7 2 4 1014.3 1014.3 2.0
03/02:30am 13.7 14.4 13.4 98 0.2 SSW 2 7 1 4 1014.6 1014.6 2.0
03/02:00am 14.0 14.0 13.7 98 0.2 SW 6 9 3 5 1014.7 1014.7 2.0
03/01:30am 14.0 14.4 13.7 98 0.2 SSW 4 7 2 4 1015.3 1015.3 2.0
03/01:00am 13.8 14.1 13.5 98 0.2 SSW 4 7 2 4 1015.3 1015.3 2.0
03/12:30am 13.8 14.1 13.5 98 0.2 SSW 4 6 2 3 1015.5 1015.5 2.0
03/12:00am 13.7 13.6 13.4 98 0.2 SSW 6 7 3 4 1015.3 1015.3 2.0
 
Date/Time
EST
Temp
°C
App
Temp
°C
Dew
Point
°C
Rel
Hum
%
Delta-T
°C
Wind Press
QNH
hPa
Press
MSL
hPa
Rain since
9am
mm
Dir  Spd
km/h
Gust
km/h
Spd
kts
Gust
kts
02/11:30pm 13.8 13.8 13.5 98 0.2 SSW 6 9 3 5 1015.8 1015.8 2.0
02/11:00pm 13.7 14.0 13.4 98 0.2 SSW 4 9 2 5 1016.0 1016.0 2.0
02/10:30pm 13.7 13.6 13.4 98 0.2 SSW 6 9 3 5 1016.1 1016.1 2.0
02/10:00pm 14.0 14.8 13.7 98 0.2 SSW 2 7 1 4 1016.1 1016.1 2.0
02/09:30pm 14.0 15.1 13.5 97 0.3 CALM 0 0 0 0 1016.2 1016.2 2.0
02/09:00pm 14.2 15.4 13.7 97 0.3 CALM 0 0 0 0 1016.3 1016.3 2.0
02/08:30pm 14.2 15.4 13.7 97 0.3 CALM 0 0 0 0 1016.3 1016.3 2.0
02/08:00pm 14.4 15.6 13.9 97 0.3 CALM 0 6 0 3 1016.4 1016.4 2.0
02/07:30pm 14.5 14.4 14.0 97 0.3 S 7 9 4 5 1016.3 1016.3 2.0
02/07:00pm 14.8 16.2 14.3 97 0.3 CALM 0 0 0 0 1016.5 1016.5 2.0
02/06:30pm 14.8 16.2 14.3 97 0.3 CALM 0 0 0 0 1016.4 1016.4 2.0
02/06:00pm 14.8 15.0 14.2 96 0.3 S 6 7 3 4 1015.9 1015.9 2.0
02/05:30pm 14.9 16.3 14.3 96 0.3 CALM 0 0 0 0 1016.2 1016.2 2.0
02/05:00pm 15.0 16.3 14.2 95 0.5 CALM 0 0 0 0 1016.1 1016.1 2.0
02/04:30pm 14.9 15.1 14.1 95 0.5 SSW 6 11 3 6 1016.1 1016.1 2.0
02/04:00pm 14.9 14.5 14.1 95 0.5 S 9 13 5 7 1015.8 1015.8 2.0
02/03:30pm 14.8 14.1 14.2 96 0.3 SSW 11 15 6 8 1016.1 1016.1 1.8
02/03:11pm 14.8 13.7 14.2 96 0.3 SSW 13 17 7 9 1016.1 1016.1 1.8
02/03:00pm 14.9 13.8 14.3 96 0.3 S 13 17 7 9 1016.2 1016.2 1.8
02/02:32pm 14.9 13.7 14.1 95 0.5 S 13 17 7 9 1016.5 1016.5 1.6
02/02:30pm 14.9 14.1 14.1 95 0.5 S 11 17 6 9 1016.5 1016.5 1.6
02/02:00pm 15.2 14.5 14.4 95 0.5 S 11 15 6 8 1017.0 1017.0 1.2
02/01:30pm 16.1 15.7 15.1 94 0.6 SSE 11 15 6 8 1016.6 1016.6 0.6
02/01:19pm 16.4 16.1 15.4 94 0.6 SSE 11 17 6 9 1016.9 1016.9 0.6
02/01:08pm 16.5 16.6 15.4 93 0.6 S 9 13 5 7 1016.8 1016.8 0.2
02/01:00pm 16.9 17.5 15.8 93 0.6 S 7 9 4 5 1016.8 1016.8 0.2
02/12:30pm 17.4 18.5 15.7 90 1.0 SW 4 6 2 3 1016.7 1016.7 0.2
02/12:00pm 17.4 19.0 15.0 86 1.4 CALM 0 0 0 0 1017.7 1017.7 0.0
02/11:30am 17.3 18.0 15.5 89 1.1 SW 6 9 3 5 1018.3 1018.3 0.0
02/11:00am 17.0 18.3 15.2 89 1.0 SSW 2 7 1 4 1017.9 1017.9 0.0
02/10:30am 16.4 17.0 15.3 93 0.6 SW 6 7 3 4 1018.2 1018.2 0.0
02/10:00am 16.1 17.8 15.1 94 0.6 CALM 0 0 0 0 1018.5 1018.5 0.0
02/09:30am 15.8 16.2 14.8 94 0.6 SW 6 9 3 5 1018.8 1018.8 0.0
02/09:00am 15.2 14.8 14.2 94 0.6 SW 9 13 5 7 1018.8 1018.8 34.0
02/08:30am 15.0 14.6 14.0 94 0.6 SSW 9 13 5 7 1018.7 1018.7 33.8
02/08:00am 14.8 13.5 13.7 93 0.6 SSW 13 20 7 11 1018.3 1018.3 33.6
02/07:30am 14.8 13.6 14.0 95 0.4 SSW 13 20 7 11 1018.5 1018.5 33.6
02/07:00am 14.7 13.5 14.1 96 0.3 SSW 13 20 7 11 1018.4 1018.4 33.4
02/06:30am 14.6 13.0 14.0 96 0.3 SSW 15 22 8 12 1018.1 1018.1 33.2
02/06:00am 14.6 13.4 14.0 96 0.3 SSW 13 19 7 10 1018.1 1018.1 32.8
02/05:48am 14.5 12.5 13.9 96 0.3 SW 17 20 9 11 1018.2 1018.2 32.2
02/05:30am 14.4 12.8 13.8 96 0.3 SW 15 22 8 12 1018.1 1018.1 31.6
02/05:00am 14.2 13.3 13.6 96 0.3 SSW 11 19 6 10 1018.1 1018.1 28.8
02/04:30am 14.2 12.9 13.6 96 0.3 SSW 13 19 7 10 1018.2 1018.2 26.0
02/04:00am 14.2 13.2 13.4 95 0.4 SW 11 15 6 8 1018.4 1018.4 23.4
02/03:59am 14.2 13.2 13.4 95 0.4 SW 11 15 6 8 1018.5 1018.5 23.2
02/03:30am 14.3 12.9 13.5 95 0.4 SSW 13 20 7 11 1018.8 1018.8 21.2
02/03:00am 14.3 12.9 13.3 94 0.6 SSW 13 20 7 11 1018.9 1018.9 20.4
02/02:30am 14.3 12.6 13.5 95 0.4 SSW 15 20 8 11 1019.1 1019.1 20.0
02/02:00am 14.4 12.3 13.6 95 0.4 SSW 17 22 9 12 1019.5 1019.5 19.6
02/01:30am 14.6 13.3 13.8 95 0.4 SSW 13 20 7 11 1019.9 1019.9 17.8
02/01:00am 14.7 12.7 13.9 95 0.4 SSW 17 24 9 13 1019.9 1019.9 17.4
02/12:30am 14.7 13.2 14.1 96 0.3 SSW 15 19 8 10 1020.3 1020.3 16.8
02/12:15am 14.8 13.3 14.2 96 0.3 SSW 15 22 8 12 1020.3 1020.3 16.8
02/12:00am 14.8 13.3 14.2 96 0.3 SSW 15 22 8 12 1020.6 1020.6 16.2
 
Date/Time
EST
Temp
°C
App
Temp
°C
Dew
Point
°C
Rel
Hum
%
Delta-T
°C
Wind Press
QNH
hPa
Press
MSL
hPa
Rain since
9am
mm
Dir  Spd
km/h
Gust
km/h
Spd
kts
Gust
kts
01/11:53pm 14.8 13.3 14.2 96 0.3 SSW 15 20 8 11 1020.6 1020.6 15.4
01/11:38pm 14.9 13.8 14.3 96 0.3 SSW 13 22 7 12 1020.6 1020.6 14.4
01/11:30pm 14.9 13.8 14.3 96 0.3 SSW 13 20 7 11 1020.5 1020.5 14.4
01/11:21pm 14.9 13.8 14.3 96 0.3 S 13 19 7 10 1020.5 1020.5 14.2
01/11:00pm 14.9 14.2 14.3 96 0.3 SSW 11 17 6 9 1020.6 1020.6 13.6
01/10:30pm 14.9 13.8 14.3 96 0.3 SSW 13 17 7 9 1021.0 1021.0 12.8
01/10:00pm 15.1 14.5 14.5 96 0.3 S 11 15 6 8 1021.3 1021.3 12.0
01/09:43pm 15.1 14.5 14.5 96 0.3 SW 11 15 6 8 1021.3 1021.3 11.4
01/09:30pm 15.1 14.5 14.5 96 0.3 SW 11 15 6 8 1021.6 1021.6 11.0
01/09:23pm 15.1 14.5 14.5 96 0.3 SSW 11 15 6 8 1021.6 1021.6 10.8
01/09:22pm 15.1 14.5 14.5 96 0.3 SSW 11 15 6 8 1021.6 1021.6 10.8
01/09:12pm 15.1 14.8 14.5 96 0.3 SSW 9 15 5 8 1021.5 1021.5 10.6
01/09:11pm 15.1 14.8 14.5 96 0.3 SSW 9 15 5 8 1021.5 1021.5 10.6
01/09:00pm 15.1 14.5 14.5 96 0.3 SSW 11 15 6 8 1021.3 1021.3 10.4
01/08:30pm 15.2 15.4 14.6 96 0.3 SSW 7 11 4 6 1021.1 1021.1 10.2
01/08:29pm 15.2 15.4 14.6 96 0.3 SSW 7 11 4 6 1021.1 1021.1 10.2
01/08:17pm 15.2 15.0 14.6 96 0.3 S 9 11 5 6 1021.1 1021.1 10.0
01/08:00pm 15.2 15.4 14.6 96 0.3 SSW 7 11 4 6 1021.1 1021.1 10.0
01/07:30pm 15.1 14.8 14.5 96 0.3 SW 9 13 5 7 1021.2 1021.2 9.8
01/07:00pm 15.1 14.8 14.3 95 0.5 SSW 9 11 5 6 1021.3 1021.3 9.6
01/06:30pm 15.2 14.9 14.4 95 0.5 SSW 9 15 5 8 1021.6 1021.6 9.4
01/06:00pm 15.1 14.8 14.3 95 0.5 SSW 9 13 5 7 1021.2 1021.2 9.0
01/05:30pm 15.1 14.8 14.3 95 0.5 SSW 9 11 5 6 1021.0 1021.0 8.6
01/05:00pm 15.1 15.1 14.3 95 0.5 SSW 7 9 4 5 1020.9 1020.9 8.4
01/04:45pm 15.1 15.1 14.3 95 0.5 S 7 9 4 5 1021.1 1021.1 8.4
01/04:30pm 15.2 15.3 14.4 95 0.5 S 7 13 4 7 1021.0 1021.0 8.0
01/04:00pm 15.4 15.7 14.4 94 0.6 S 6 9 3 5 1021.2 1021.2 7.2
01/03:30pm 15.4 15.7 14.4 94 0.6 S 6 9 3 5 1021.0 1021.0 5.8
01/03:00pm 15.6 15.8 14.6 94 0.6 SSW 7 11 4 6 1020.7 1020.7 5.0
01/02:53pm 15.5 15.2 14.5 94 0.6 SSW 9 11 5 6 1020.6 1020.6 4.8
01/02:30pm 15.7 15.9 14.6 93 0.6 SSW 7 11 4 6 1020.7 1020.7 4.4
01/02:00pm 15.5 15.2 14.4 93 0.6 SSW 9 15 5 8 1020.7 1020.7 4.0
01/01:30pm 15.5 15.1 14.2 92 0.7 SW 9 13 5 7 1020.9 1020.9 3.4
01/01:00pm 15.6 15.3 14.3 92 0.7 SSW 9 13 5 7 1021.0 1021.0 3.0
01/12:30pm 15.4 14.6 13.9 91 0.8 SSW 11 15 6 8 1021.4 1021.4 2.4
01/12:00pm 15.3 14.4 13.7 90 0.9 SSW 11 17 6 9 1022.0 1022.0 2.2
01/11:30am 15.4 14.9 13.8 90 0.9 SSW 9 15 5 8 1022.5 1022.5 2.0
01/11:00am 15.3 14.8 13.8 91 0.8 SSW 9 13 5 7 1022.7 1022.7 1.8
01/10:30am 15.0 14.8 13.5 91 0.8 SSW 7 11 4 6 1023.3 1023.3 1.4
01/10:00am 15.0 14.7 13.4 90 0.9 SSW 7 11 4 6 1023.4 1023.4 0.8
01/09:30am 14.7 13.2 13.2 91 0.8 SW 13 17 7 9 1023.5 1023.5 0.6
01/09:00am 14.7 14.0 13.2 91 0.8 SSW 9 13 5 7 1023.5 1023.5 4.0
01/08:30am 14.6 13.9 13.1 91 0.8 SSW 9 15 5 8 1023.4 1023.4 3.6
01/08:00am 14.4 13.3 13.0 91 0.8 SSW 11 13 6 7 1023.2 1023.2 2.8
01/07:30am 14.4 13.6 13.0 91 0.8 S 9 13 5 7 1022.9 1022.9 1.6
01/07:00am 14.7 14.1 13.4 92 0.7 SSE 9 11 5 6 1022.7 1022.7 1.0
01/06:30am 15.0 14.7 13.4 90 0.9 SSE 7 9 4 5 1022.6 1022.6 0.6
01/06:00am 15.2 14.5 13.1 87 1.2 SSE 9 11 5 6 1022.1 1022.1 0.2
01/05:30am 15.6 15.2 12.5 82 1.7 SSE 6 7 3 4 1021.8 1021.8 0.2
01/05:00am 16.0 14.9 12.0 77 2.2 S 9 11 5 6 1021.7 1021.7 0.2
01/04:30am 16.4 15.8 11.8 74 2.5 SSW 6 9 3 5 1021.9 1021.9 0.2
01/04:00am 16.6 15.4 11.5 72 2.8 SSW 9 13 5 7 1021.7 1021.7 0.2
01/03:30am 16.6 15.4 11.7 73 2.7 SSW 9 13 5 7 1021.7 1021.7 0.2
01/03:00am 16.5 15.5 12.3 76 2.3 SSW 9 15 5 8 1021.6 1021.6 0.2
01/02:30am 15.9 15.4 12.6 81 1.8 S 7 9 4 5 1021.5 1021.5 0.2
01/02:00am 16.1 15.3 13.0 82 1.7 S 9 11 5 6 1021.8 1021.8 0.2
01/01:30am 16.3 15.8 12.8 80 1.9 S 7 7 4 4 1022.2 1022.2 0.2
01/01:00am 16.4 15.8 13.5 83 1.6 SSW 9 13 5 7 1022.7 1022.7 0.2
01/12:30am 16.2 16.0 13.5 84 1.5 SSW 7 9 4 5 1022.6 1022.6 0.2
01/12:00am 16.2 16.0 13.7 85 1.4 S 7 7 4 4 1023.0 1023.0 0.2
 
Date/Time
EST
Temp
°C
App
Temp
°C
Dew
Point
°C
Rel
Hum
%
Delta-T
°C
Wind Press
QNH
hPa
Press
MSL
hPa
Rain since
9am
mm
Dir  Spd
km/h
Gust
km/h
Spd
kts
Gust
kts
30/11:30pm 16.1 15.6 13.8 86 1.3 S 9 11 5 6 1022.9 1022.9 0.2
30/11:00pm 16.0 15.8 13.7 86 1.3 SSE 7 9 4 5 1023.1 1023.1 0.2
30/10:30pm 16.3 16.3 13.6 84 1.5 S 6 9 3 5 1023.2 1023.2 0.2
30/10:00pm 16.5 16.5 13.6 83 1.6 S 6 6 3 3 1023.5 1023.5 0.2
30/09:30pm 16.5 16.4 13.8 84 1.5 SSE 7 9 4 5 1023.7 1023.7 0.2

Other formats

Comma delimited format used in spreadsheet applications
http://www.bom.gov.au/fwo/IDN60801/IDN60801.94592.axf

JavaScript Object Notation format (JSON) in row-major order
http://www.bom.gov.au/fwo/IDN60801/IDN60801.94592.json

Data quality

Most of these data are generated automatically and are frequently updated. Quality checks on data are not normally performed. It is possible for incorrect values to appear. Refer to information at About Latest Weather Observations and please check the disclaimer before using these data.